Aérodrome :
LOGIN :

S'inscrire | Disclaimer

   EN    FR    IT 

 










Légende :    VFR   VFR Marginal   IFR   IFR Intensif   IFR Très Intensif
Visi : 
Plafond : 
>= 8 km
>= 3000ft
5 à 8 km
1000 à 3000 ft
1500m à 5 km
500 à 1000 ft
800 à 1500m
200 à 500 ft
< 800m
< 200 ft
Symboles :   Orages  Brouillard  Fortes neiges  Fortes précipitations  Vent > 20 kt
SIGMETs :   Divers  Orages  Givrage  Turbulence  Onde Orograph.  Cendres Volcan.







- Altitude de l'aérodrome : 158 ft
- Code IATA : QAR


EHDL - Deelen Airbase

DERNIER METAR :
  • 251455Z AUTO 05008KT 350V090 9999 OVC051 17/14 Q1021 BLU

METARs EXPIRÉS :
  • 251425Z AUTO 07008KT 330V140 9999 FEW027 OVC047 17/12 Q1021 BLU
  • 251355Z AUTO 08006KT 360V140 9999 OVC045 17/12 Q1021 BLU
  • 251325Z AUTO 09007KT 020V160 9999 BKN030 OVC034 18/12 Q1021 BLU
  • 251255Z AUTO VRB03KT 9999 BKN020 BKN024 BKN028 17/12 Q1021 WHT
  • 251225Z AUTO VRB01KT 9999 BKN017 BKN021 OVC025 17/13 Q1021 WHT
  • 251155Z AUTO VRB02KT 9999 SCT017 BKN020 BKN029 16/13 Q1021 WHT

Prévision TAF périmée.
Pas de NOTAMs connus pour ce terrain.



MET'MAP, la Météo Aéronautique d'un coup d'oeil ! - Copyright ORBIFLY Décembre 2007 - Disclaimer

ORBIFLY MET'MAP TEAM :

Programmation & Développement : Alexandra Zaïnal
Conception & Développement : Baudouin d'Aumeries
Co-Programmation & Développement : Marc-Olivier Méhu
Soutien technique & logistique : Manuel Goepfert

Contact : metmap@orbifly.com




SOURCES & CREDITS :

   NOAA